Time;durP1;ratioP1;P1;durP2;ratioP2;P2;SDS_P1;SDS_P2;PMS_P1;PMS_P2;Temp;Humidity;BMP_temperature;BMP_pressure;BME280_temperature;BME280_humidity;BME280_pressure;Samples;Min_cycle;Max_cycle;Signal;HPM_P1;HPM_P2
2022/06/10 00:00:06;;;;;;;7.20;5.75;;;;;;;11.07;100.00;101357.19;697032;28;1210;-45
2022/06/10 00:00:28;;;;;;;7.45;6.13;;;;;;;11.04;100.00;101355.44;701526;28;1327;-45
2022/06/10 00:00:49;;;;;;;7.10;5.97;;;;;;;11.04;100.00;101354.59;695106;28;2158;-45
2022/06/10 00:01:10;;;;;;;6.85;5.72;;;;;;;11.03;100.00;101352.81;696143;28;1028;-45
2022/06/10 00:01:31;;;;;;;7.78;5.80;;;;;;;10.99;100.00;101351.06;697343;28;1358;-46
2022/06/10 00:01:51;;;;;;;7.23;5.90;;;;;;;10.96;100.00;101357.16;697123;28;5187;-44
2022/06/10 00:02:11;;;;;;;6.75;6.05;;;;;;;10.96;100.00;101358.91;697542;28;1348;-43
2022/06/10 00:02:32;;;;;;;7.00;6.30;;;;;;;10.94;100.00;101356.28;698325;28;1413;-44
2022/06/10 00:02:53;;;;;;;8.30;6.15;;;;;;;10.93;100.00;101353.66;699465;28;1065;-44
2022/06/10 00:03:15;;;;;;;9.85;6.15;;;;;;;10.95;100.00;101357.16;700842;28;1273;-44
2022/06/10 00:03:36;;;;;;;8.32;6.10;;;;;;;10.97;100.00;101355.44;700782;28;955;-44
2022/06/10 00:03:56;;;;;;;8.40;6.25;;;;;;;10.98;100.00;101351.91;699721;28;1070;-44
2022/06/10 00:04:17;;;;;;;7.57;5.72;;;;;;;10.98;100.00;101357.16;698008;28;1289;-45
2022/06/10 00:04:37;;;;;;;8.53;6.43;;;;;;;10.95;100.00;101358.03;694930;28;1226;-45
2022/06/10 00:04:57;;;;;;;7.93;6.77;;;;;;;10.94;100.00;101358.00;695707;28;4305;-43
2022/06/10 00:05:25;;;;;;;7.55;6.00;;;;;;;10.97;100.00;101358.03;695825;28;1237;-44
2022/06/10 00:05:48;;;;;;;7.03;6.13;;;;;;;10.99;100.00;101357.16;695406;28;2122;-46
2022/06/10 00:06:10;;;;;;;7.95;6.25;;;;;;;10.97;100.00;101355.44;697192;28;1111;-44
2022/06/10 00:06:31;;;;;;;8.77;6.60;;;;;;;10.97;100.00;101358.03;696058;28;1151;-44
2022/06/10 00:06:51;;;;;;;8.23;6.33;;;;;;;10.97;100.00;101353.69;696767;28;1162;-45
2022/06/10 00:07:12;;;;;;;8.60;6.10;;;;;;;11.00;100.00;101353.69;697854;28;1297;-44
2022/06/10 00:07:34;;;;;;;9.60;6.23;;;;;;;11.00;100.00;101355.44;696428;28;1324;-43
2022/06/10 00:07:55;;;;;;;7.93;6.00;;;;;;;11.01;100.00;101359.81;692583;28;4639;-44
2022/06/10 00:08:19;;;;;;;7.53;5.90;;;;;;;11.00;100.00;101350.19;694362;28;1301;-44
2022/06/10 00:08:44;;;;;;;7.53;5.55;;;;;;;10.95;100.00;101350.19;693963;28;1479;-44
2022/06/10 00:09:04;;;;;;;6.80;5.80;;;;;;;10.94;100.00;101343.19;694598;28;1389;-47
2022/06/10 00:09:25;;;;;;;6.90;5.80;;;;;;;10.92;100.00;101349.28;693432;28;1523;-43
2022/06/10 00:09:45;;;;;;;7.88;6.20;;;;;;;10.89;100.00;101350.16;692869;28;1516;-44
2022/06/10 00:10:07;;;;;;;7.70;6.30;;;;;;;10.83;100.00;101356.22;693466;28;1169;-43
2022/06/10 00:10:27;;;;;;;6.80;6.10;;;;;;;10.82;100.00;101354.47;694919;28;1404;-43
2022/06/10 00:10:49;;;;;;;6.97;6.27;;;;;;;10.79;100.00;101359.69;696228;28;1139;-44
2022/06/10 00:11:10;;;;;;;9.23;6.75;;;;;;;10.77;100.00;101348.31;698894;28;5010;-43
2022/06/10 00:11:30;;;;;;;8.15;6.32;;;;;;;10.78;100.00;101352.69;700215;28;1237;-45
2022/06/10 00:11:51;;;;;;;8.00;6.40;;;;;;;10.79;100.00;101357.06;697949;28;1055;-45
2022/06/10 00:12:11;;;;;;;8.33;6.23;;;;;;;10.81;100.00;101349.22;696718;28;1913;-46
2022/06/10 00:12:31;;;;;;;7.37;5.93;;;;;;;10.84;100.00;101357.97;695291;28;1209;-44
2022/06/10 00:12:52;;;;;;;9.30;6.00;;;;;;;10.83;100.00;101351.00;695156;28;1055;-44
2022/06/10 00:13:13;;;;;;;8.57;6.10;;;;;;;10.85;100.00;101353.63;692160;28;1318;-44
2022/06/10 00:13:36;;;;;;;7.78;6.22;;;;;;;10.87;100.00;101360.59;692032;28;1110;-44
2022/06/10 00:13:57;;;;;;;9.02;6.30;;;;;;;10.80;100.00;101350.97;692354;28;4468;-45
2022/06/10 00:14:17;;;;;;;9.27;6.13;;;;;;;10.77;100.00;101350.94;692904;28;1271;-44
2022/06/10 00:14:37;;;;;;;7.63;6.18;;;;;;;10.79;100.00;101351.84;697108;28;1300;-44
2022/06/10 00:14:58;;;;;;;7.33;6.20;;;;;;;10.80;100.00;101345.75;698861;28;1236;-44
2022/06/10 00:15:19;;;;;;;7.47;6.20;;;;;;;10.82;100.00;101353.59;698941;28;1293;-44
2022/06/10 00:15:40;;;;;;;7.40;6.18;;;;;;;10.82;100.00;101351.00;700284;28;1341;-44
2022/06/10 00:16:01;;;;;;;7.35;6.00;;;;;;;10.82;100.00;101351.00;700488;27;1092;-45
2022/06/10 00:16:22;;;;;;;8.27;6.20;;;;;;;10.84;100.00;101355.38;698187;28;1320;-44
2022/06/10 00:16:42;;;;;;;8.18;6.10;;;;;;;10.85;100.00;101351.84;695836;28;1273;-44
2022/06/10 00:17:03;;;;;;;8.03;6.33;;;;;;;10.85;100.00;101353.63;695427;28;4281;-44
2022/06/10 00:17:23;;;;;;;8.48;6.40;;;;;;;10.86;100.00;101351.00;695713;28;1384;-44
2022/06/10 00:17:44;;;;;;;9.27;6.33;;;;;;;10.88;100.00;101343.16;696209;28;1317;-44
2022/06/10 00:18:04;;;;;;;8.30;6.25;;;;;;;10.90;100.00;101352.75;696374;28;1238;-46
2022/06/10 00:18:27;;;;;;;7.60;6.30;;;;;;;10.95;100.00;101354.53;695917;28;1577;-44
2022/06/10 00:18:48;;;;;;;8.80;6.30;;;;;;;10.97;100.00;101358.91;698613;28;2039;-43
2022/06/10 00:19:08;;;;;;;7.75;6.03;;;;;;;10.95;100.00;101349.28;698561;28;1261;-45
2022/06/10 00:19:29;;;;;;;8.10;6.25;;;;;;;10.88;100.00;101354.50;698606;28;1146;-45
2022/06/10 00:19:49;;;;;;;8.87;6.70;;;;;;;10.85;100.00;101357.09;698412;28;4525;-46
2022/06/10 00:20:16;;;;;;;9.93;6.93;;;;;;;10.85;100.00;101351.84;700037;28;1297;-43
2022/06/10 00:20:36;;;;;;;7.45;6.50;;;;;;;10.84;100.00;101351.84;699817;28;1229;-44
2022/06/10 00:20:58;;;;;;;8.50;6.45;;;;;;;10.86;100.00;101355.38;700049;28;1189;-45
2022/06/10 00:21:20;;;;;;;7.43;6.53;;;;;;;10.88;100.00;101356.22;698992;28;1273;-46
2022/06/10 00:21:40;;;;;;;8.40;6.50;;;;;;;10.90;100.00;101357.13;695123;28;1630;-45
2022/06/10 00:22:01;;;;;;;6.83;5.60;;;;;;;10.93;100.00;101356.28;695501;28;1270;-44
2022/06/10 00:22:22;;;;;;;8.50;5.90;;;;;;;10.95;100.00;101357.16;695768;28;1513;-45
2022/06/10 00:22:42;;;;;;;7.95;6.40;;;;;;;10.92;100.00;101355.38;695122;28;1218;-44
2022/06/10 00:23:03;;;;;;;7.20;6.40;;;;;;;10.90;100.00;101360.63;694750;28;4445;-43
2022/06/10 00:23:23;;;;;;;7.40;6.32;;;;;;;10.94;100.00;101353.66;694545;28;1511;-45
2022/06/10 00:23:44;;;;;;;7.50;6.40;;;;;;;10.93;100.00;101351.91;701852;28;1424;-45
2022/06/10 00:24:05;;;;;;;9.38;6.60;;;;;;;10.92;100.00;101362.38;700008;28;1470;-43
2022/06/10 00:24:25;;;;;;;8.98;6.75;;;;;;;10.92;100.00;101354.53;700771;28;1463;-44
2022/06/10 00:24:46;;;;;;;9.50;7.10;;;;;;;10.88;100.00;101349.28;699264;28;1142;-43
2022/06/10 00:25:07;;;;;;;9.88;7.07;;;;;;;10.85;100.00;101354.47;695169;28;1624;-43
2022/06/10 00:25:28;;;;;;;8.95;6.70;;;;;;;10.87;100.00;101354.50;695244;28;1304;-43
2022/06/10 00:25:49;;;;;;;10.60;7.13;;;;;;;10.84;100.00;101352.75;693184;28;1109;-46
2022/06/10 00:26:11;;;;;;;9.70;6.80;;;;;;;10.85;100.00;101354.47;694870;28;4472;-44
2022/06/10 00:26:31;;;;;;;10.02;6.60;;;;;;;10.88;100.00;101354.50;692576;28;1398;-43
2022/06/10 00:26:51;;;;;;;10.80;6.80;;;;;;;10.88;100.00;101354.50;693525;28;1159;-44
2022/06/10 00:27:13;;;;;;;8.25;6.50;;;;;;;10.88;100.00;101354.50;698734;28;1253;-44
2022/06/10 00:27:34;;;;;;;8.13;6.13;;;;;;;10.86;100.00;101353.63;694979;28;1486;-45
2022/06/10 00:27:55;;;;;;;7.13;6.20;;;;;;;10.86;100.00;101355.38;695845;28;1171;-43
2022/06/10 00:28:15;;;;;;;7.65;6.38;;;;;;;10.86;100.00;101356.22;695753;28;1261;-44
2022/06/10 00:28:36;;;;;;;9.38;6.30;;;;;;;10.87;100.00;101352.75;698742;28;1320;-43
2022/06/10 00:28:59;;;;;;;7.55;6.13;;;;;;;10.89;100.00;101356.25;696306;28;4400;-44
2022/06/10 00:29:19;;;;;;;7.53;6.65;;;;;;;10.89;100.00;101348.41;697685;28;1240;-44
2022/06/10 00:29:40;;;;;;;8.53;6.57;;;;;;;10.89;100.00;101356.25;701042;28;1262;-43
2022/06/10 00:30:00;;;;;;;8.65;6.55;;;;;;;10.88;100.00;101357.13;696191;28;1099;-44
2022/06/10 00:30:24;;;;;;;8.10;6.57;;;;;;;10.87;100.00;101351.91;698552;28;1459;-46
2022/06/10 00:30:45;;;;;;;7.70;6.50;;;;;;;10.83;100.00;101353.59;697692;28;1385;-44
2022/06/10 00:31:05;;;;;;;7.10;6.40;;;;;;;10.82;100.00;101354.47;695987;28;1143;-43
2022/06/10 00:31:26;;;;;;;7.60;6.63;;;;;;;10.85;100.00;101353.63;690891;28;1277;-44
2022/06/10 00:31:47;;;;;;;7.60;6.65;;;;;;;10.86;100.00;101345.78;693735;28;1181;-45
2022/06/10 00:32:07;;;;;;;8.52;6.63;;;;;;;10.82;100.00;101354.47;694965;28;4428;-43
2022/06/10 00:32:28;;;;;;;8.40;6.60;;;;;;;10.79;100.00;101351.84;695490;28;1318;-45
2022/06/10 00:32:48;;;;;;;9.25;6.80;;;;;;;10.76;100.00;101351.84;696042;28;1215;-44
2022/06/10 00:33:09;;;;;;;9.00;6.60;;;;;;;10.78;100.00;101346.59;698273;28;1185;-44
2022/06/10 00:33:33;;;;;;;7.68;6.35;;;;;;;10.76;100.00;101346.59;700477;28;1283;-44
2022/06/10 00:33:53;;;;;;;7.45;6.15;;;;;;;10.75;100.00;101347.47;701610;28;1093;-46
2022/06/10 00:34:14;;;;;;;7.05;6.03;;;;;;;10.75;100.00;101347.47;700326;28;3346;-43
2022/06/10 00:34:35;;;;;;;8.07;6.37;;;;;;;10.79;100.00;101348.38;698351;28;1319;-45
2022/06/10 00:34:56;;;;;;;9.40;6.53;;;;;;;10.82;100.00;101349.22;697106;28;4322;-44
2022/06/10 00:35:17;;;;;;;7.40;6.30;;;;;;;10.84;100.00;101344.91;697992;28;1228;-45
2022/06/10 00:35:37;;;;;;;6.82;6.10;;;;;;;10.81;100.00;101344.00;698777;28;1269;-45
2022/06/10 00:35:57;;;;;;;8.05;6.30;;;;;;;10.79;100.00;101344.00;697910;28;1084;-43
2022/06/10 00:36:19;;;;;;;7.87;6.57;;;;;;;10.77;100.00;101350.94;695393;28;1218;-44
2022/06/10 00:36:40;;;;;;;10.70;6.95;;;;;;;10.75;100.00;101339.63;696297;28;1245;-46
2022/06/10 00:37:02;;;;;;;8.48;6.60;;;;;;;10.77;100.00;101340.47;695851;28;1285;-44
2022/06/10 00:37:22;;;;;;;7.45;6.63;;;;;;;10.78;100.00;101342.25;692078;28;1409;-43
2022/06/10 00:37:43;;;;;;;7.30;6.40;;;;;;;10.79;100.00;101349.22;692686;28;1483;-45
2022/06/10 00:38:03;;;;;;;7.45;6.57;;;;;;;10.78;100.00;101344.84;691003;28;4391;-43
2022/06/10 00:38:24;;;;;;;8.07;7.00;;;;;;;10.77;100.00;101348.31;693271;28;1436;-46
2022/06/10 00:38:44;;;;;;;8.80;6.70;;;;;;;10.79;100.00;101340.53;694366;28;1302;-46
2022/06/10 00:39:05;;;;;;;9.32;6.65;;;;;;;10.80;100.00;101342.25;695283;28;1559;-45
2022/06/10 00:39:25;;;;;;;9.50;7.00;;;;;;;10.79;100.00;101343.13;696188;28;1514;-43
2022/06/10 00:39:46;;;;;;;7.83;6.97;;;;;;;10.80;100.00;101347.47;696676;28;1344;-45
2022/06/10 00:40:14;;;;;;;8.23;6.70;;;;;;;10.79;100.00;101349.22;696857;28;1104;-46
2022/06/10 00:40:47;;;;;;;7.75;6.57;;;;;;;10.77;100.00;101348.31;697206;28;1308;-44
2022/06/10 00:41:08;;;;;;;8.13;6.70;;;;;;;10.79;100.00;101346.63;695686;28;4254;-45
2022/06/10 00:41:29;;;;;;;8.37;7.00;;;;;;;10.81;100.00;101347.47;696125;28;1387;-45
2022/06/10 00:41:50;;;;;;;8.95;7.00;;;;;;;10.80;100.00;101344.84;695852;28;1276;-44
2022/06/10 00:42:12;;;;;;;8.77;6.90;;;;;;;10.78;100.00;101341.38;696846;28;1262;-45
2022/06/10 00:42:35;;;;;;;8.50;6.93;;;;;;;10.76;100.00;101344.00;698116;28;1174;-46
2022/06/10 00:42:56;;;;;;;8.95;7.53;;;;;;;10.76;100.00;101341.38;699433;28;1165;-44
2022/06/10 00:43:20;;;;;;;9.80;7.55;;;;;;;10.73;100.00;101342.22;695591;28;1194;-45
2022/06/10 00:43:40;;;;;;;9.65;7.30;;;;;;;10.71;100.00;101343.06;692246;28;1396;-44
2022/06/10 00:44:01;;;;;;;10.07;7.47;;;;;;;10.71;100.00;101348.31;693077;28;4777;-46
2022/06/10 00:44:42;;;;;;;9.57;7.18;;;;;;;10.71;100.00;101346.56;693092;28;1287;-45
2022/06/10 00:45:04;;;;;;;9.80;7.38;;;;;;;10.71;100.00;101341.31;696292;28;1384;-44
2022/06/10 00:46:02;;;;;;;9.50;7.20;;;;;;;10.68;100.00;101343.94;696660;28;1474;-44
2022/06/10 00:46:30;;;;;;;8.77;7.53;;;;;;;10.71;100.00;101346.56;700168;28;1498;-44
2022/06/10 00:46:51;;;;;;;9.55;7.68;;;;;;;10.71;100.00;101350.94;696282;28;4305;-43
2022/06/10 00:47:22;;;;;;;10.45;7.80;;;;;;;10.70;100.00;101343.94;696820;28;1020;-45
2022/06/10 00:47:43;;;;;;;9.10;7.35;;;;;;;10.71;100.00;101348.31;697938;28;1280;-44
2022/06/10 00:48:03;;;;;;;10.77;7.60;;;;;;;10.70;100.00;101351.78;698219;28;832;-47
2022/06/10 00:48:27;;;;;;;9.90;7.55;;;;;;;10.69;100.00;101347.44;697876;28;1403;-44
2022/06/10 00:48:56;;;;;;;10.65;7.70;;;;;;;10.66;100.00;101344.78;699709;28;1521;-44
2022/06/10 00:49:16;;;;;;;8.75;7.60;;;;;;;10.65;100.00;101350.91;701407;28;1183;-44
2022/06/10 00:49:37;;;;;;;9.40;7.53;;;;;;;10.67;100.00;101349.16;697874;28;1317;-45
2022/06/10 00:50:13;;;;;;;10.27;7.50;;;;;;;10.67;100.00;101349.16;697662;28;4750;-45
2022/06/10 00:50:38;;;;;;;9.68;7.70;;;;;;;10.64;100.00;101344.78;698971;28;1256;-45
2022/06/10 00:51:09;;;;;;;8.82;7.35;;;;;;;10.65;100.00;101350.91;697669;28;1161;-44
2022/06/10 00:51:43;;;;;;;10.52;7.10;;;;;;;10.63;100.00;101343.03;699309;28;1277;-43
2022/06/10 00:52:04;;;;;;;8.85;7.45;;;;;;;10.63;100.00;101350.00;701157;28;1391;-46
2022/06/10 00:52:35;;;;;;;9.98;7.47;;;;;;;10.59;100.00;101348.22;699792;28;1921;-46
2022/06/10 00:53:00;;;;;;;9.82;7.95;;;;;;;10.55;100.00;101344.75;699621;28;4519;-43
2022/06/10 00:53:26;;;;;;;10.25;8.13;;;;;;;10.50;100.00;101347.31;700267;28;1451;-47
2022/06/10 00:53:52;;;;;;;9.52;8.00;;;;;;;10.49;100.00;101347.31;699955;28;1156;-43
2022/06/10 00:54:30;;;;;;;10.27;7.90;;;;;;;10.45;100.00;101349.00;700050;28;1280;-44
2022/06/10 00:54:52;;;;;;;9.60;7.90;;;;;;;10.45;100.00;101349.00;699717;28;1093;-47
2022/06/10 00:55:13;;;;;;;9.85;8.20;;;;;;;10.49;100.00;101344.69;698250;28;1284;-44
2022/06/10 00:55:36;;;;;;;8.60;7.70;;;;;;;10.49;100.00;101348.16;696063;28;1281;-43
2022/06/10 00:56:03;;;;;;;9.07;7.50;;;;;;;10.51;100.00;101353.44;695204;28;4333;-44
2022/06/10 00:56:26;;;;;;;10.52;7.45;;;;;;;10.51;100.00;101343.84;691578;28;1384;-45
2022/06/10 00:56:52;;;;;;;10.80;7.68;;;;;;;10.50;100.00;101352.53;691550;28;978;-44
2022/06/10 00:57:17;;;;;;;10.88;8.00;;;;;;;10.50;100.00;101344.69;693843;28;1223;-43
2022/06/10 00:57:42;;;;;;;8.45;7.55;;;;;;;10.54;100.00;101345.59;694839;28;1003;-47
2022/06/10 00:58:20;;;;;;;9.55;7.47;;;;;;;10.56;100.00;101349.97;696574;28;1089;-45
2022/06/10 00:58:43;;;;;;;9.55;7.78;;;;;;;10.59;100.00;101343.00;699878;28;1287;-44
2022/06/10 00:59:13;;;;;;;10.10;7.80;;;;;;;10.57;100.00;101351.69;701016;28;4491;-44
2022/06/10 00:59:50;;;;;;;9.18;7.43;;;;;;;10.60;100.00;101358.69;700768;28;1261;-45
2022/06/10 01:00:14;;;;;;;9.35;7.35;;;;;;;10.61;100.00;101344.78;701294;28;1353;-43
2022/06/10 01:00:37;;;;;;;9.20;7.57;;;;;;;10.61;100.00;101347.38;698306;28;1281;-44
2022/06/10 01:00:59;;;;;;;9.07;7.47;;;;;;;10.63;100.00;101347.38;698311;28;1349;-44
2022/06/10 01:01:20;;;;;;;8.95;7.18;;;;;;;10.64;100.00;101342.16;697467;28;1759;-44
2022/06/10 01:01:41;;;;;;;9.93;7.63;;;;;;;10.63;100.00;101345.63;697491;28;1424;-44
2022/06/10 01:02:10;;;;;;;9.85;7.40;;;;;;;10.66;100.00;101342.16;694591;28;4293;-44
2022/06/10 01:02:32;;;;;;;9.02;7.78;;;;;;;10.69;100.00;101343.06;697592;28;1358;-45
2022/06/10 01:02:53;;;;;;;10.07;8.15;;;;;;;10.66;100.00;101340.44;698472;28;1106;-44
2022/06/10 01:03:13;;;;;;;10.07;7.87;;;;;;;10.67;100.00;101343.94;697801;28;1269;-44
2022/06/10 01:03:34;;;;;;;10.10;7.60;;;;;;;10.65;100.00;101348.28;695802;28;1260;-45
2022/06/10 01:03:54;;;;;;;10.37;7.50;;;;;;;10.64;100.00;101344.78;698565;28;970;-44
2022/06/10 01:04:15;;;;;;;9.32;7.53;;;;;;;10.61;100.00;101339.53;698258;28;1250;-44
2022/06/10 01:04:36;;;;;;;8.70;7.50;;;;;;;10.62;100.00;101345.63;697326;28;1354;-44
2022/06/10 01:04:59;;;;;;;8.48;7.03;;;;;;;10.62;100.00;101346.53;696851;28;4287;-45
2022/06/10 01:05:24;;;;;;;8.60;7.07;;;;;;;10.63;100.00;101347.38;697959;28;1320;-43
2022/06/10 01:05:44;;;;;;;10.38;7.53;;;;;;;10.62;100.00;101346.53;694754;28;2134;-47
2022/06/10 01:06:05;;;;;;;10.27;7.53;;;;;;;10.63;100.00;101347.38;696197;28;1424;-43
2022/06/10 01:06:26;;;;;;;10.27;7.25;;;;;;;10.61;100.00;101347.38;695409;28;1475;-43
2022/06/10 01:06:46;;;;;;;9.35;7.13;;;;;;;10.61;100.00;101352.59;691967;28;1100;-43
2022/06/10 01:07:08;;;;;;;8.97;7.40;;;;;;;10.60;100.00;101343.00;690427;28;1291;-46
2022/06/10 01:07:35;;;;;;;8.00;7.20;;;;;;;10.60;100.00;101342.16;688831;28;851;-44
2022/06/10 01:07:59;;;;;;;9.75;7.30;;;;;;;10.57;100.00;101343.88;691636;28;4398;-43
2022/06/10 01:08:21;;;;;;;10.35;7.40;;;;;;;10.56;100.00;101346.47;693577;28;1266;-45
2022/06/10 01:08:43;;;;;;;9.23;7.43;;;;;;;10.56;100.00;101349.09;697022;28;1301;-45
2022/06/10 01:09:04;;;;;;;9.52;7.70;;;;;;;10.55;100.00;101343.00;699538;28;1383;-43
2022/06/10 01:09:28;;;;;;;9.80;7.53;;;;;;;10.55;100.00;101350.84;695122;28;1633;-44
2022/06/10 01:09:50;;;;;;;8.00;7.18;;;;;;;10.55;100.00;101350.84;693440;28;1031;-44
2022/06/10 01:10:15;;;;;;;9.65;7.60;;;;;;;10.51;100.00;101343.84;691939;28;848;-45
2022/06/10 01:10:47;;;;;;;10.07;7.40;;;;;;;10.53;100.00;101349.06;692748;28;1242;-45
2022/06/10 01:11:35;;;;;;;9.30;7.70;;;;;;;10.53;100.00;101346.47;693327;28;4301;-45
2022/06/10 01:12:04;;;;;;;9.57;8.15;;;;;;;10.52;100.00;101348.22;697391;28;1149;-44
2022/06/10 01:13:00;;;;;;;9.20;7.47;;;;;;;10.52;100.00;101350.81;699849;28;1887;-45
2022/06/10 01:13:39;;;;;;;8.95;7.57;;;;;;;10.51;100.00;101351.69;701328;28;1272;-47
2022/06/10 01:14:07;;;;;;;9.93;7.47;;;;;;;10.49;100.00;101356.00;700359;28;4448;-45
2022/06/10 01:14:44;;;;;;;9.75;7.63;;;;;;;10.47;100.00;101347.28;698257;28;1284;-44
2022/06/10 01:15:22;;;;;;;10.43;7.70;;;;;;;10.43;100.00;101355.13;698536;28;1407;-44
2022/06/10 01:15:55;;;;;;;9.35;7.93;;;;;;;10.43;100.00;101366.44;699183;28;1387;-45
2022/06/10 01:16:37;;;;;;;9.70;8.63;;;;;;;10.43;100.00;101348.13;698852;28;1262;-44
2022/06/10 01:17:06;;;;;;;10.82;8.52;;;;;;;10.44;100.00;101346.38;697382;28;4673;-45
2022/06/10 01:17:29;;;;;;;9.88;8.65;;;;;;;10.43;100.00;101353.38;699101;28;1218;-44
2022/06/10 01:18:05;;;;;;;10.05;8.45;;;;;;;10.44;100.00;101349.00;700479;28;1090;-44
2022/06/10 01:18:41;;;;;;;9.75;8.50;;;;;;;10.47;100.00;101349.03;700430;28;1284;-46
2022/06/10 01:19:32;;;;;;;11.07;8.75;;;;;;;10.47;100.00;101349.91;701237;28;1326;-44
2022/06/10 01:20:02;;;;;;;10.02;8.93;;;;;;;10.43;100.00;101345.53;700886;28;4270;-44
2022/06/10 01:20:34;;;;;;;12.02;9.10;;;;;;;10.43;100.00;101347.28;702477;28;1078;-44
2022/06/10 01:21:34;;;;;;;11.35;8.80;;;;;;;10.44;100.00;101351.63;698571;28;1032;-45
2022/06/10 01:22:32;;;;;;;11.23;8.93;;;;;;;10.45;100.00;101350.75;699612;28;1027;-43
2022/06/10 01:23:14;;;;;;;11.95;8.93;;;;;;;10.48;100.00;101349.06;700417;28;4370;-44
2022/06/10 01:24:00;;;;;;;10.27;8.75;;;;;;;10.45;100.00;101349.00;699923;28;1659;-48
2022/06/10 01:24:45;;;;;;;10.15;8.00;;;;;;;10.46;100.00;101350.78;699691;28;1228;-45
2022/06/10 01:25:39;;;;;;;10.77;8.50;;;;;;;10.47;100.00;101356.88;699180;28;1280;-45
2022/06/10 01:27:47;;;;;;;11.75;8.70;;;;;;;10.46;100.00;101350.78;697988;28;4443;-46
2022/06/10 01:27:48;;;;;;;10.10;9.00;;;;;;;10.46;100.00;101350.78;702243;28;1514;-45
2022/06/10 01:28:28;;;;;;;10.65;8.18;;;;;;;10.49;100.00;101345.56;699113;28;1210;-44
2022/06/10 01:29:19;;;;;;;8.88;7.68;;;;;;;10.48;100.00;101346.44;698955;28;1191;-45
2022/06/10 01:30:06;;;;;;;9.50;7.70;;;;;;;10.47;100.00;101352.53;696815;28;5050;-45
2022/06/10 01:30:45;;;;;;;9.90;7.95;;;;;;;10.57;100.00;101346.47;700858;28;855;-46
2022/06/10 01:31:08;;;;;;;8.27;7.38;;;;;;;10.55;100.00;101348.22;701804;28;847;-44
2022/06/10 01:31:53;;;;;;;10.25;7.10;;;;;;;10.54;100.00;101338.63;701677;28;780;-47
2022/06/10 01:32:38;;;;;;;9.48;7.70;;;;;;;10.54;100.00;101351.69;701222;28;1954;-44
2022/06/10 01:33:52;;;;;;;11.95;7.90;;;;;;;10.54;100.00;101341.25;700677;28;1785;-45
2022/06/10 01:34:31;;;;;;;8.65;7.65;;;;;;;10.49;100.00;101342.94;690922;28;1312;-46
2022/06/10 01:35:08;;;;;;;8.63;7.63;;;;;;;10.40;100.00;101350.75;688435;28;4311;-44
2022/06/10 01:36:04;;;;;;;8.68;7.75;;;;;;;10.41;100.00;101342.00;687494;28;1006;-47
2022/06/10 01:36:46;;;;;;;9.55;7.72;;;;;;;10.45;100.00;101348.16;688859;28;941;-44
2022/06/10 01:37:15;;;;;;;9.77;7.80;;;;;;;10.41;100.00;101342.00;687848;28;888;-43
2022/06/10 01:38:01;;;;;;;8.45;7.25;;;;;;;10.42;100.00;101342.91;687825;28;1070;-44
2022/06/10 01:38:44;;;;;;;9.45;7.45;;;;;;;10.47;100.00;101344.69;693022;28;4898;-44
2022/06/10 01:39:22;;;;;;;8.98;7.47;;;;;;;10.47;100.00;101347.28;692993;28;919;-45
2022/06/10 01:39:55;;;;;;;9.57;7.50;;;;;;;10.45;100.00;101346.41;690039;28;2061;-44
2022/06/10 01:40:18;;;;;;;8.27;7.47;;;;;;;10.43;100.00;101348.13;694443;28;1042;-44
2022/06/10 01:40:45;;;;;;;7.93;7.13;;;;;;;10.41;100.00;101349.00;696844;28;979;-48
2022/06/10 01:41:28;;;;;;;9.57;7.40;;;;;;;10.37;100.00;101350.69;696374;28;4311;-45
2022/06/10 01:42:27;;;;;;;9.57;8.10;;;;;;;10.35;100.00;101353.31;698357;28;994;-45
2022/06/10 01:42:57;;;;;;;9.48;7.90;;;;;;;10.36;100.00;101352.44;695970;28;1162;-44
2022/06/10 01:43:20;;;;;;;10.68;8.38;;;;;;;10.36;100.00;101351.59;698802;28;891;-45
2022/06/10 01:44:02;;;;;;;9.68;8.18;;;;;;;10.33;100.00;101348.91;698476;28;1018;-45
2022/06/10 01:45:00;;;;;;;8.77;7.60;;;;;;;10.31;100.00;101355.84;700479;28;4721;-45
2022/06/10 01:45:37;;;;;;;9.55;7.82;;;;;;;10.30;100.00;101356.72;701439;28;903;-47
2022/06/10 01:46:09;;;;;;;10.30;7.95;;;;;;;10.32;100.00;101352.38;700774;28;1360;-45
2022/06/10 01:46:32;;;;;;;9.48;7.70;;;;;;;10.30;100.00;101349.78;700010;28;815;-45
2022/06/10 01:47:03;;;;;;;9.13;8.00;;;;;;;10.28;100.00;101350.63;700731;28;4577;-45
2022/06/10 01:47:38;;;;;;;8.82;7.90;;;;;;;10.28;100.00;101351.47;698825;28;781;-44
2022/06/10 01:48:04;;;;;;;9.90;7.88;;;;;;;10.29;100.00;101350.63;700097;28;965;-46
2022/06/10 01:48:44;;;;;;;11.05;8.38;;;;;;;10.28;100.00;101355.84;700500;28;970;-44
2022/06/10 01:49:34;;;;;;;9.73;8.02;;;;;;;10.29;100.00;101348.00;701854;28;1207;-45
2022/06/10 01:50:21;;;;;;;11.60;8.15;;;;;;;10.28;100.00;101350.63;698748;28;4477;-44
2022/06/10 01:50:47;;;;;;;10.15;7.82;;;;;;;10.28;100.00;101353.22;701116;28;1006;-44
2022/06/10 01:51:16;;;;;;;9.40;7.80;;;;;;;10.27;100.00;101354.94;701507;28;998;-45
2022/06/10 01:51:57;;;;;;;9.70;8.25;;;;;;;10.23;100.00;101348.84;700727;28;982;-45
2022/06/10 01:52:40;;;;;;;9.18;7.90;;;;;;;10.25;100.00;101355.81;700899;28;1922;-45
2022/06/10 01:53:07;;;;;;;9.73;8.38;;;;;;;10.29;100.00;101352.38;700068;28;4692;-47
2022/06/10 01:53:42;;;;;;;9.60;7.53;;;;;;;10.28;100.00;101348.88;699103;28;958;-45
2022/06/10 01:54:23;;;;;;;8.23;7.40;;;;;;;10.28;100.00;101361.94;700382;28;955;-43
2022/06/10 01:54:46;;;;;;;9.70;7.97;;;;;;;10.26;100.00;101349.72;697938;28;1927;-45
2022/06/10 01:55:18;;;;;;;10.05;7.97;;;;;;;10.26;100.00;101349.72;698280;28;1033;-44
2022/06/10 01:55:57;;;;;;;10.38;8.40;;;;;;;10.26;100.00;101353.22;695541;28;895;-44
2022/06/10 01:56:25;;;;;;;8.48;7.32;;;;;;;10.28;100.00;101351.47;695140;28;4842;-45
2022/06/10 01:56:49;;;;;;;8.82;7.68;;;;;;;10.29;100.00;101355.00;698773;28;990;-44
2022/06/10 01:57:18;;;;;;;10.55;7.80;;;;;;;10.28;100.00;101348.88;699463;28;970;-47
2022/06/10 01:57:49;;;;;;;8.68;7.28;;;;;;;10.32;100.00;101352.38;701248;28;756;-45
2022/06/10 01:58:22;;;;;;;9.60;7.40;;;;;;;10.33;100.00;101364.59;701701;28;961;-43
2022/06/10 01:59:08;;;;;;;9.90;7.50;;;;;;;10.29;100.00;101357.59;700631;28;1382;-45
2022/06/10 01:59:36;;;;;;;9.52;7.50;;;;;;;10.28;100.00;101355.84;698996;28;4715;-44
2022/06/10 02:00:11;;;;;;;9.75;7.60;;;;;;;10.27;100.00;101357.56;702037;27;1006;-44
2022/06/10 02:00:35;;;;;;;9.23;7.70;;;;;;;10.27;100.00;101360.16;701148;28;990;-44
2022/06/10 02:01:05;;;;;;;9.82;8.13;;;;;;;10.22;100.00;101357.53;699529;28;1474;-45
2022/06/10 02:01:35;;;;;;;8.70;7.80;;;;;;;10.15;100.00;101360.97;693169;28;1266;-44
2022/06/10 02:02:13;;;;;;;9.60;7.80;;;;;;;10.17;100.00;101355.75;694597;28;4317;-46
2022/06/10 02:02:37;;;;;;;10.43;8.20;;;;;;;10.16;100.00;101351.38;693771;28;939;-44
2022/06/10 02:03:15;;;;;;;9.45;7.93;;;;;;;10.13;100.00;101360.06;695296;28;1071;-43
2022/06/10 02:03:59;;;;;;;9.15;8.18;;;;;;;10.10;100.00;101357.44;700345;28;966;-45
2022/06/10 02:04:30;;;;;;;9.80;7.57;;;;;;;10.12;100.00;101350.50;697902;28;903;-45
2022/06/10 02:04:55;;;;;;;8.85;7.50;;;;;;;10.14;100.00;101355.72;697865;28;4524;-46
2022/06/10 02:05:19;;;;;;;9.52;7.70;;;;;;;10.13;100.00;101354.84;699117;28;912;-45
2022/06/10 02:05:48;;;;;;;8.68;7.35;;;;;;;10.13;100.00;101353.97;697949;28;1208;-45
2022/06/10 02:06:16;;;;;;;8.70;7.80;;;;;;;10.14;100.00;101351.38;699039;28;920;-45
2022/06/10 02:06:49;;;;;;;9.23;7.45;;;;;;;10.18;100.00;101358.38;698559;28;1420;-45
2022/06/10 02:07:25;;;;;;;8.48;7.55;;;;;;;10.18;100.00;101354.91;697631;28;1024;-46
2022/06/10 02:07:52;;;;;;;8.57;7.68;;;;;;;10.17;100.00;101360.97;699188;28;1264;-44
2022/06/10 02:08:28;;;;;;;9.00;7.75;;;;;;;10.12;100.00;101360.94;699118;28;4773;-44
2022/06/10 02:08:57;;;;;;;9.20;7.75;;;;;;;10.12;100.00;101354.84;700508;28;993;-46
2022/06/10 02:09:23;;;;;;;9.40;7.60;;;;;;;10.15;100.00;101354.84;699095;28;994;-46
2022/06/10 02:09:51;;;;;;;10.45;7.63;;;;;;;10.18;100.00;101354.91;697511;28;915;-44